Asher, Oklahoma
Current Conditions -  °F | °C
As of 6:55 AM on Monday 22 Dec 2014 (Local Time) from KADH Reporting Station
Scattered Clouds Scattered Clouds  
Wind Chill:   Ceiling: Unl
Heat Index:   Visibility: 7mi
Dew Point:   Wind: 8mph
Humidity: 100%   Direction: 160°SSE
Pressure: 29.56"   Gusts: NA
Location:  34.99°N, 96.92°W
Report Text: KADH 221255Z AUTO 16007KT 7SM SCT005 SCT014 SCT019 08/08 A2956 RMK AO2
Loading
Personal Weather Stations






























Interactive Weather Map New forecast layout! Learn more

10-Day Weather Forecast

Advertisements
Track Severe Weather on mobile